Force, PA

11:23 AM EDT on August 01, 2015 (GMT -0400)
APRSWXNET | | Change Station
CLOSE
Current Station
Personal Weather Station
Location: Saint Marys, PA
Elevation: 1580 ft
Nearby Weather Stations

Elev 1580 ft 41.42 °N, 78.58 °W | Updated 33 minutes ago

Clear
Clear
73 °F
Feels Like 77 °F
N
3
Wind Variable Wind from NNW
Gusts 0.0 mph

Today
High -- | Low -- °F
--% Chance of Precip.
Yesterday
High -- | Low -- °F
Precip. -- in
6:09 AM 8:30 PM
Full, 98% visible
Pressure 29.90 in
Visibility 10.0 miles
Clouds Few 3800 ft
Few 5000 ft
Heat Index 77 °F
Dew Point 56 °F
Humidity 56%
Rainfall in
Snow Depth Not available.
UV 7 out of 12
Pollen 6.50 out of 12
Air Quality Not available.
Flu Activity Not available.
METAR KFIG 011454Z AUTO 30010KT 10SM FEW038 FEW050 24/13 A2993 RMK AO2 SLP124 T02440128 51005

More Conditions Fewer Conditions

Pressure 29.90 in
Visibility 10.0 miles
Clouds Few 3800 ft
Few 5000 ft
Heat Index 77 °F
Dew Point 56 °F
Humidity 56%
Rainfall in
Snow Depth Not available.
UV 7 out of 12
Pollen 6.50 out of 12
Air Quality Not available.
Flu Activity Not available.
METAR KFIG 011454Z AUTO 30010KT 10SM FEW038 FEW050 24/13 A2993 RMK AO2 SLP124 T02440128 51005

More Conditions Fewer Conditions

10-Day Weather Forecast

×

Almanac

Astronomy

Aug. 01, 2015 Rise Set
Actual Time
Civil Twilight
Nautical Twilight
Astronomical Twilight
Moon
Length of Visible Light
Length of Day
Tomorrow will be .
, % of the Moon is Illuminated

Today's Extremes

State Highs State Lows

Community

WunderPhotos

Upload Photos

1,842,963 photos uploaded!

WunderBlogs® & News

Nearby

Air Quality

  Air Quality AQ Index Pollutant
Not available.

Snow Depth

Station Depth Elevation

Earthquake Activity

City Distance Mag. Time & Date
Minimum magnitude displayed is 2.5.

Coastal Water Temperatures

Place Temperature

Stations

Nearby Weather Stations

Station Location Temp. Windchill Dew Point Humidity Wind Precip. Elev Updated Type